Time;durP1;ratioP1;P1;durP2;ratioP2;P2;SDS_P1;SDS_P2;PMS_P1;PMS_P2;Temp;Humidity;BMP_temperature;BMP_pressure;BME280_temperature;BME280_humidity;BME280_pressure;Samples;Min_cycle;Max_cycle;Signal;HPM_P1;HPM_P2
2023/01/06 00:02:14;;;;;;;6.13;5.83;;;;;;;9.63;100.00;97323.22;4936954;29;20241;-78
2023/01/06 00:04:40;;;;;;;4.87;4.57;;;;;;;9.70;100.00;97310.09;4937151;29;20257;-76
2023/01/06 00:07:05;;;;;;;4.77;4.50;;;;;;;9.67;100.00;97313.13;4937034;29;20555;-77
2023/01/06 00:09:32;;;;;;;5.07;4.70;;;;;;;9.65;100.00;97310.72;4954132;29;20217;-77
2023/01/06 00:11:58;;;;;;;4.77;4.57;;;;;;;9.63;100.00;97314.56;4954553;29;20188;-77
2023/01/06 00:14:23;;;;;;;4.43;4.23;;;;;;;9.70;100.00;97308.28;4954993;29;20201;-76
2023/01/06 00:16:48;;;;;;;5.00;4.80;;;;;;;9.77;100.00;97316.09;4954044;29;20225;-77
2023/01/06 00:19:14;;;;;;;6.07;5.73;;;;;;;9.68;100.00;97305.09;4953963;29;20181;-77
2023/01/06 00:21:41;;;;;;;5.47;5.27;;;;;;;9.70;100.00;97310.91;4953889;29;20233;-77
2023/01/06 00:24:07;;;;;;;4.97;4.57;;;;;;;9.75;100.00;97313.69;4954550;29;20600;-77
2023/01/06 00:26:33;;;;;;;4.07;3.87;;;;;;;9.72;100.00;97305.47;4954226;29;20549;-77
2023/01/06 00:28:58;;;;;;;4.17;3.93;;;;;;;9.82;100.00;97296.16;4952326;29;20199;-78
2023/01/06 00:31:23;;;;;;;4.63;4.40;;;;;;;9.78;100.00;97294.16;4954047;29;20563;-77
2023/01/06 00:33:48;;;;;;;4.80;4.60;;;;;;;9.73;100.00;97297.41;4954660;29;20193;-77
2023/01/06 00:36:14;;;;;;;5.23;5.03;;;;;;;9.74;100.00;97290.38;4953720;28;20548;-77
2023/01/06 00:38:40;;;;;;;4.63;4.43;;;;;;;9.72;100.00;97293.19;4940653;29;20190;-77
2023/01/06 00:43:58;;;;;;;4.53;4.30;;;;;;;9.79;100.00;97290.53;4957910;29;20272;-77
2023/01/06 00:46:27;;;;;;;4.87;4.67;;;;;;;9.75;100.00;97282.28;4958033;29;20256;-76
2023/01/06 00:48:52;;;;;;;5.53;5.13;;;;;;;9.69;100.00;97279.72;4957629;29;20241;-76
2023/01/06 00:51:18;;;;;;;4.40;4.20;;;;;;;9.71;100.00;97281.09;4957495;29;20209;-77
2023/01/06 00:53:43;;;;;;;4.23;4.03;;;;;;;9.72;100.00;97280.09;4957548;29;20193;-76
2023/01/06 00:56:08;;;;;;;4.23;4.03;;;;;;;9.80;100.00;97285.09;4971312;28;20240;-77
2023/01/06 00:58:34;;;;;;;4.90;4.63;;;;;;;9.71;100.00;97281.09;4977058;28;20201;-77
2023/01/06 01:01:06;;;;;;;4.77;4.57;;;;;;;9.72;100.00;97284.53;4976772;28;20283;-78
2023/01/06 01:03:33;;;;;;;5.77;5.47;;;;;;;9.75;100.00;97278.88;4976265;28;20553;-78
2023/01/06 01:06:04;;;;;;;4.83;4.63;;;;;;;9.79;100.00;97288.72;4959362;28;20189;-77
2023/01/06 01:08:30;;;;;;;5.00;4.70;;;;;;;9.76;100.00;97280.47;4977105;28;20197;-77
2023/01/06 01:11:02;;;;;;;4.67;4.37;;;;;;;9.62;100.00;97287.59;4976499;28;20329;-77
2023/01/06 01:13:28;;;;;;;5.30;4.83;;;;;;;9.62;100.00;97277.13;4976945;28;20260;-77
2023/01/06 01:15:53;;;;;;;6.63;4.40;;;;;;;9.62;100.00;97276.31;4976681;28;20263;-77
2023/01/06 01:18:18;;;;;;;4.83;4.47;;;;;;;9.59;100.00;97280.13;4976981;28;20271;-77
2023/01/06 01:20:46;;;;;;;6.00;5.70;;;;;;;9.56;100.00;97275.34;4976647;28;20193;-76
2023/01/06 01:23:12;;;;;;;6.60;6.20;;;;;;;9.52;100.00;97276.78;4976121;28;20184;-77
2023/01/06 01:25:39;;;;;;;6.57;6.27;;;;;;;9.49;100.00;97274.56;4976667;28;20676;-77
2023/01/06 01:28:05;;;;;;;8.33;7.93;;;;;;;9.41;100.00;97278.22;4958636;28;20644;-77
2023/01/06 01:30:30;;;;;;;9.87;9.37;;;;;;;9.43;100.00;97283.22;4976361;28;20236;-77
2023/01/06 01:32:56;;;;;;;8.53;8.13;;;;;;;9.37;100.00;97278.81;4976034;28;20195;-77
2023/01/06 01:35:21;;;;;;;11.63;11.07;;;;;;;9.23;100.00;97272.03;4960819;28;20196;-76
2023/01/06 01:37:46;;;;;;;15.43;14.57;;;;;;;9.12;100.00;97268.25;4975886;28;20548;-77
2023/01/06 01:40:12;;;;;;;13.97;13.17;;;;;;;9.14;100.00;97266.22;4975396;28;20621;-77
2023/01/06 01:42:37;;;;;;;14.00;13.20;;;;;;;9.03;100.00;97269.44;4976296;28;20184;-77
2023/01/06 01:45:20;;;;;;;19.73;18.77;;;;;;;9.16;100.00;97257.16;4976177;28;20199;-77
2023/01/06 01:48:02;;;;;;;15.00;14.20;;;;;;;9.03;100.00;97259.00;4958397;28;20598;-76
2023/01/06 01:50:40;;;;;;;14.63;13.83;;;;;;;9.03;100.00;97256.38;4976366;28;20208;-77
2023/01/06 01:53:14;;;;;;;14.77;14.03;;;;;;;8.97;100.00;97258.00;4976137;28;20220;-77
2023/01/06 01:55:40;;;;;;;13.53;12.83;;;;;;;9.02;100.00;97268.66;4975437;28;20814;-77
2023/01/06 01:58:12;;;;;;;13.60;12.60;;;;;;;9.09;100.00;97256.38;4976137;28;20267;-76
2023/01/06 02:00:39;;;;;;;11.33;10.63;;;;;;;9.07;100.00;97261.00;4975827;28;20649;-76
2023/01/06 02:03:05;;;;;;;13.40;12.53;;;;;;;9.18;100.00;97254.34;4958127;28;20273;-76
2023/01/06 02:05:32;;;;;;;12.63;12.00;;;;;;;9.16;100.00;97257.16;4975894;28;20312;-76
2023/01/06 02:08:04;;;;;;;13.87;13.17;;;;;;;9.06;100.00;97262.03;4975621;28;20192;-77
2023/01/06 02:10:29;;;;;;;22.83;21.67;;;;;;;9.07;100.00;97262.81;4975727;28;20212;-76
2023/01/06 02:12:57;;;;;;;18.43;17.50;;;;;;;9.14;100.00;97258.34;4975528;28;20181;-77
2023/01/06 02:15:25;;;;;;;13.93;13.23;;;;;;;9.14;100.00;97259.16;4975734;28;20199;-76
2023/01/06 02:18:05;;;;;;;11.70;11.10;;;;;;;9.23;100.00;97257.16;4975457;28;20214;-77
2023/01/06 02:20:54;;;;;;;12.93;12.27;;;;;;;9.28;100.00;97251.28;4975411;28;20530;-76
2023/01/06 02:23:23;;;;;;;16.93;16.03;;;;;;;9.32;100.00;97255.09;4974975;28;20744;-77
2023/01/06 02:26:14;;;;;;;14.80;14.10;;;;;;;9.41;100.00;97252.06;4975473;28;20675;-77
2023/01/06 02:28:48;;;;;;;6.97;6.57;;;;;;;9.42;100.00;97251.03;4937524;29;20303;-76
2023/01/06 02:31:22;;;;;;;6.97;6.67;;;;;;;9.40;100.00;97255.69;4961872;28;20567;-77
2023/01/06 02:33:58;;;;;;;10.27;9.77;;;;;;;9.37;100.00;97250.03;4974983;28;20188;-77
2023/01/06 02:36:53;;;;;;;9.70;9.10;;;;;;;9.40;100.00;97250.44;4974810;28;20204;-77
2023/01/06 02:39:43;;;;;;;7.87;7.40;;;;;;;9.42;100.00;97243.16;4958417;28;20726;-77
2023/01/06 02:42:33;;;;;;;6.77;6.37;;;;;;;9.49;100.00;97251.00;4975085;28;20189;-78
2023/01/06 02:44:58;;;;;;;5.47;5.17;;;;;;;9.38;100.00;97235.94;4960794;28;20263;-77
2023/01/06 02:47:45;;;;;;;4.47;4.27;;;;;;;9.33;100.00;97239.19;4975233;28;20644;-76
2023/01/06 02:50:27;;;;;;;4.57;4.37;;;;;;;9.24;100.00;97237.84;4975138;28;20666;-76
2023/01/06 02:53:02;;;;;;;5.83;5.53;;;;;;;9.27;100.00;97236.59;4959625;28;20180;-77
2023/01/06 02:55:42;;;;;;;6.03;5.73;;;;;;;9.29;100.00;97245.88;4965918;28;20229;-77
2023/01/06 02:58:43;;;;;;;4.47;4.27;;;;;;;9.31;100.00;97246.44;4955845;29;20547;-77
2023/01/06 03:01:27;;;;;;;4.53;4.20;;;;;;;9.38;100.00;97235.94;4942154;29;20195;-77
2023/01/06 03:03:57;;;;;;;5.30;4.80;;;;;;;9.39;100.00;97234.94;4937856;29;20204;-77
2023/01/06 03:06:28;;;;;;;4.40;4.10;;;;;;;9.46;100.00;97238.34;4955759;29;20668;-77
2023/01/06 03:08:56;;;;;;;4.57;4.27;;;;;;;9.48;100.00;97236.31;4950192;29;20240;-77
2023/01/06 03:11:25;;;;;;;4.93;4.67;;;;;;;9.45;100.00;97236.75;4955220;29;20197;-77
2023/01/06 03:14:49;;;;;;;5.07;4.87;;;;;;;9.42;100.00;97234.53;4955342;29;20236;-77
2023/01/06 03:17:14;;;;;;;4.97;4.67;;;;;;;9.42;100.00;97235.31;4912397;29;20196;-76
2023/01/06 03:19:40;;;;;;;4.87;4.60;;;;;;;9.38;100.00;97225.50;4955016;29;20181;-77
2023/01/06 03:22:07;;;;;;;5.00;4.70;;;;;;;9.35;100.00;97225.91;4954780;29;20191;-77
2023/01/06 03:24:35;;;;;;;4.77;4.47;;;;;;;9.53;100.00;97229.44;4955320;29;20185;-76
2023/01/06 03:27:02;;;;;;;4.57;4.37;;;;;;;9.53;100.00;97232.06;4952763;29;20208;-77
2023/01/06 03:29:28;;;;;;;4.63;4.43;;;;;;;9.43;100.00;97229.09;4955330;29;20181;-77
2023/01/06 03:32:04;;;;;;;4.20;4.00;;;;;;;9.50;100.00;97229.06;4954966;29;20590;-77
2023/01/06 03:35:02;;;;;;;4.63;4.43;;;;;;;9.55;100.00;97230.03;4954869;29;20184;-77
2023/01/06 03:37:57;;;;;;;4.90;4.60;;;;;;;9.37;100.00;97224.69;4953623;28;20245;-77
2023/01/06 03:40:38;;;;;;;4.80;4.57;;;;;;;9.37;100.00;97219.44;4955013;29;20188;-77
2023/01/06 03:43:14;;;;;;;4.37;4.17;;;;;;;9.45;100.00;97218.41;4954566;29;20177;-76
2023/01/06 03:46:27;;;;;;;4.10;3.90;;;;;;;9.14;100.00;97217.31;4954874;29;20192;-76
2023/01/06 03:49:07;;;;;;;5.17;4.83;;;;;;;9.24;100.00;97227.38;4911660;29;20656;-77
2023/01/06 03:51:39;;;;;;;5.93;5.63;;;;;;;9.01;100.00;97222.63;4954908;29;20232;-76
2023/01/06 03:54:17;;;;;;;8.17;7.57;;;;;;;8.94;100.00;97226.25;4937590;29;20185;-76
2023/01/06 03:56:48;;;;;;;10.60;10.00;;;;;;;9.05;100.00;97225.63;4954347;28;20224;-76
2023/01/06 03:59:19;;;;;;;8.73;8.27;;;;;;;8.91;100.00;97222.25;4954626;29;20192;-77
2023/01/06 04:01:46;;;;;;;8.47;8.07;;;;;;;8.83;100.00;97217.22;4954266;29;20181;-76
2023/01/06 04:04:12;;;;;;;13.77;13.07;;;;;;;8.85;100.00;97225.69;4954454;29;20181;-77
2023/01/06 04:06:37;;;;;;;14.90;14.20;;;;;;;8.85;100.00;97233.50;4954819;29;20641;-77
2023/01/06 04:09:03;;;;;;;13.87;13.17;;;;;;;8.86;100.00;97226.47;4954197;29;20220;-77
2023/01/06 04:14:12;;;;;;;17.40;16.50;;;;;;;8.71;100.00;97216.25;4958707;29;20189;-77
2023/01/06 04:16:37;;;;;;;18.27;17.23;;;;;;;8.61;100.00;97224.50;4946607;29;20178;-77
2023/01/06 04:19:02;;;;;;;12.93;12.23;;;;;;;8.64;100.00;97218.84;4955632;29;20197;-77
2023/01/06 04:21:28;;;;;;;12.73;12.07;;;;;;;8.72;100.00;97215.25;4943536;29;20189;-77
2023/01/06 04:23:53;;;;;;;13.27;12.57;;;;;;;8.66;100.00;97209.00;4958158;29;20193;-76
2023/01/06 04:26:18;;;;;;;10.20;9.53;;;;;;;8.67;100.00;97208.00;4956207;29;20264;-77
2023/01/06 04:28:44;;;;;;;10.40;9.90;;;;;;;8.66;100.00;97211.63;4958230;29;20521;-76
2023/01/06 04:31:10;;;;;;;11.00;10.30;;;;;;;8.65;100.00;97211.81;4958046;29;20197;-77
2023/01/06 04:33:36;;;;;;;10.20;9.60;;;;;;;8.67;100.00;97210.63;4958456;29;20177;-76
2023/01/06 04:36:01;;;;;;;9.10;8.60;;;;;;;8.66;100.00;97205.59;4948752;28;20196;-77
2023/01/06 04:38:26;;;;;;;8.27;7.87;;;;;;;8.64;100.00;97202.38;4957011;29;20536;-77
2023/01/06 04:40:52;;;;;;;7.53;7.13;;;;;;;8.48;100.00;97190.53;4940924;29;20186;-77
2023/01/06 04:43:17;;;;;;;7.87;7.37;;;;;;;8.33;100.00;97198.59;4958156;29;20587;-77
2023/01/06 04:45:43;;;;;;;6.70;6.37;;;;;;;8.48;100.00;97193.16;4957859;29;20699;-76
2023/01/06 04:48:10;;;;;;;7.10;6.70;;;;;;;8.42;100.00;97193.97;4957900;29;20189;-76
2023/01/06 04:50:36;;;;;;;7.70;7.20;;;;;;;8.41;100.00;97196.81;4957701;29;20201;-76
2023/01/06 04:53:02;;;;;;;6.70;6.17;;;;;;;8.46;100.00;97197.00;4957996;29;20189;-76
2023/01/06 04:55:28;;;;;;;6.10;5.73;;;;;;;8.40;100.00;97192.59;4957190;28;20229;-76
2023/01/06 04:57:53;;;;;;;5.67;5.37;;;;;;;8.38;100.00;97191.97;4957789;29;20189;-76
2023/01/06 05:00:19;;;;;;;5.83;5.53;;;;;;;8.33;100.00;97193.38;4958158;29;20537;-76
2023/01/06 05:02:45;;;;;;;6.50;6.10;;;;;;;8.33;100.00;97196.00;4939886;29;20790;-75
2023/01/06 05:05:11;;;;;;;6.27;5.90;;;;;;;8.24;100.00;97199.00;4958017;29;20182;-74
2023/01/06 05:07:36;;;;;;;5.07;4.77;;;;;;;8.18;100.00;97194.56;4957661;29;20541;-75
2023/01/06 05:10:03;;;;;;;5.73;5.33;;;;;;;8.13;100.00;97197.78;4957960;29;20217;-73
2023/01/06 05:12:30;;;;;;;4.80;4.60;;;;;;;8.23;100.00;97192.16;4957635;29;20201;-73
2023/01/06 05:14:55;;;;;;;5.27;4.97;;;;;;;8.25;100.00;97182.28;4956801;29;20189;-74
2023/01/06 05:17:21;;;;;;;5.03;4.77;;;;;;;8.22;100.00;97185.31;4957639;29;20236;-76
2023/01/06 05:19:46;;;;;;;5.97;5.60;;;;;;;8.24;100.00;97197.19;4957533;29;20189;-76
2023/01/06 05:22:12;;;;;;;5.30;5.00;;;;;;;8.16;100.00;97192.16;4956626;28;20700;-76
2023/01/06 05:24:37;;;;;;;4.80;4.50;;;;;;;8.31;100.00;97203.22;4957226;29;20197;-77
2023/01/06 05:27:03;;;;;;;4.60;4.30;;;;;;;8.36;100.00;97202.59;4955295;29;20181;-76
2023/01/06 05:29:28;;;;;;;5.40;5.00;;;;;;;8.30;100.00;97196.38;4957014;29;20204;-76
2023/01/06 05:31:54;;;;;;;4.50;4.10;;;;;;;8.33;100.00;97192.56;4956950;29;20555;-76
2023/01/06 05:34:19;;;;;;;5.07;4.67;;;;;;;8.40;100.00;97201.22;4957396;29;20197;-76
2023/01/06 05:36:44;;;;;;;4.87;4.57;;;;;;;8.30;100.00;97193.00;4956251;28;20198;-77
2023/01/06 05:39:09;;;;;;;5.43;5.13;;;;;;;8.32;100.00;97191.78;4956819;29;20189;-76
2023/01/06 05:41:35;;;;;;;6.23;5.93;;;;;;;8.24;100.00;97181.50;4957431;29;20181;-76
2023/01/06 05:44:00;;;;;;;6.13;5.73;;;;;;;8.40;100.00;97184.75;4956708;29;20196;-77
2023/01/06 05:46:26;;;;;;;9.23;8.73;;;;;;;8.37;100.00;97190.34;4939738;29;20252;-77
2023/01/06 05:48:51;;;;;;;13.83;13.03;;;;;;;8.41;100.00;97176.72;4956538;29;20265;-76
2023/01/06 05:51:17;;;;;;;14.07;13.30;;;;;;;8.38;100.00;97191.97;4957020;29;20248;-76
2023/01/06 05:53:45;;;;;;;12.37;11.73;;;;;;;8.41;100.00;97173.28;4957059;29;20192;-76
2023/01/06 05:56:13;;;;;;;10.93;10.33;;;;;;;8.55;100.00;97183.50;4956045;28;20700;-77
2023/01/06 05:58:42;;;;;;;10.97;10.37;;;;;;;8.44;100.00;97191.97;4937401;29;20200;-77
2023/01/06 06:01:15;;;;;;;10.03;9.53;;;;;;;8.50;100.00;97180.72;4956421;29;20178;-77
2023/01/06 06:03:40;;;;;;;11.50;10.90;;;;;;;8.43;100.00;97195.56;4943209;29;20186;-76
2023/01/06 06:06:06;;;;;;;13.40;12.70;;;;;;;8.41;100.00;97181.94;4957164;29;20196;-76
2023/01/06 06:08:32;;;;;;;12.40;11.73;;;;;;;8.55;100.00;97180.91;4956219;29;20281;-76
2023/01/06 06:11:05;;;;;;;11.83;11.23;;;;;;;8.54;100.00;97178.47;4956614;29;20200;-77
2023/01/06 06:13:31;;;;;;;12.10;11.40;;;;;;;8.58;100.00;97184.94;4955805;29;20196;-77
2023/01/06 06:16:09;;;;;;;12.73;12.03;;;;;;;8.64;100.00;97187.50;4956494;29;20189;-77
2023/01/06 06:18:42;;;;;;;13.70;13.00;;;;;;;8.55;100.00;97185.31;4956351;29;20200;-77
2023/01/06 06:21:13;;;;;;;13.60;12.87;;;;;;;8.53;100.00;97185.50;4956241;29;20205;-77
2023/01/06 06:23:39;;;;;;;12.67;12.07;;;;;;;8.54;100.00;97184.50;4956358;29;20216;-77
2023/01/06 06:26:05;;;;;;;12.60;11.90;;;;;;;8.59;100.00;97184.69;4947475;29;20214;-78
2023/01/06 06:28:32;;;;;;;11.67;11.10;;;;;;;8.67;100.00;97184.50;4951750;29;20554;-77
2023/01/06 06:31:12;;;;;;;12.17;11.57;;;;;;;8.65;100.00;97193.53;4955657;29;20236;-77
2023/01/06 06:33:38;;;;;;;13.30;12.60;;;;;;;8.61;100.00;97208.03;4956100;28;20556;-76
2023/01/06 06:36:05;;;;;;;13.33;12.60;;;;;;;8.57;100.00;97204.22;4955068;28;20208;-77
2023/01/06 06:38:30;;;;;;;13.47;12.67;;;;;;;8.47;100.00;97201.22;4955802;29;20193;-74
2023/01/06 06:40:55;;;;;;;17.60;16.63;;;;;;;8.44;100.00;97204.22;4955735;29;20180;-75
2023/01/06 06:43:21;;;;;;;14.00;13.30;;;;;;;8.46;100.00;97210.88;4955720;29;20190;-74
2023/01/06 06:45:46;;;;;;;9.70;9.07;;;;;;;8.42;100.00;97199.19;4938818;29;20185;-74
2023/01/06 06:48:12;;;;;;;8.53;8.13;;;;;;;8.43;100.00;97202.59;4938529;29;20197;-74
2023/01/06 06:50:37;;;;;;;6.53;6.13;;;;;;;8.45;100.00;97204.03;4955707;29;20267;-78
2023/01/06 06:53:03;;;;;;;5.60;5.30;;;;;;;8.46;100.00;97202.22;4955408;29;20596;-77
2023/01/06 06:55:28;;;;;;;5.33;4.90;;;;;;;8.41;100.00;97204.63;4955363;28;20287;-74
2023/01/06 06:57:53;;;;;;;4.87;4.57;;;;;;;8.44;100.00;97199.81;4955286;29;20603;-76
2023/01/06 07:00:19;;;;;;;5.57;5.27;;;;;;;8.53;100.00;97193.34;4955694;29;20281;-77
2023/01/06 07:02:48;;;;;;;5.13;4.83;;;;;;;8.48;100.00;97200.19;4955305;29;20189;-77
2023/01/06 07:05:14;;;;;;;5.17;4.87;;;;;;;8.46;100.00;97210.88;4955546;29;20618;-77
2023/01/06 07:07:39;;;;;;;5.80;5.50;;;;;;;8.53;100.00;97214.25;4954910;29;20552;-76
2023/01/06 07:10:05;;;;;;;6.97;6.57;;;;;;;8.44;100.00;97199.81;4955238;29;20209;-77
2023/01/06 07:12:30;;;;;;;6.97;6.63;;;;;;;8.44;100.00;97209.44;4955064;29;20190;-76
2023/01/06 07:14:56;;;;;;;6.07;5.67;;;;;;;8.54;100.00;97209.84;4954722;29;20645;-75
2023/01/06 07:17:26;;;;;;;9.67;9.17;;;;;;;8.54;100.00;97210.63;4954824;29;20633;-77
2023/01/06 07:19:51;;;;;;;14.53;13.80;;;;;;;8.63;100.00;97211.25;4955268;29;20700;-76
2023/01/06 07:22:16;;;;;;;16.23;15.33;;;;;;;8.58;100.00;97226.72;4946990;29;20293;-75
2023/01/06 07:24:41;;;;;;;8.00;7.60;;;;;;;8.64;100.00;97225.88;4936000;29;20197;-77
2023/01/06 07:27:07;;;;;;;9.43;8.83;;;;;;;8.73;100.00;97229.91;4954907;29;20189;-76
2023/01/06 07:29:32;;;;;;;10.60;9.90;;;;;;;8.73;100.00;97241.16;4955276;29;20189;-76
2023/01/06 07:31:58;;;;;;;10.53;10.03;;;;;;;8.74;100.00;97242.78;4954981;29;20245;-76
2023/01/06 07:34:24;;;;;;;7.90;7.50;;;;;;;8.90;100.00;97238.94;4953485;28;20205;-76
2023/01/06 07:36:49;;;;;;;7.90;7.50;;;;;;;8.87;100.00;97233.28;4943192;29;20189;-77
2023/01/06 07:39:14;;;;;;;6.13;5.83;;;;;;;9.00;100.00;97234.06;4954498;29;20189;-76
2023/01/06 07:41:39;;;;;;;5.80;5.53;;;;;;;9.05;100.00;97239.50;4954989;29;20592;-76
2023/01/06 07:44:05;;;;;;;6.37;6.07;;;;;;;9.14;100.00;97233.00;4954900;29;20189;-76
2023/01/06 07:46:30;;;;;;;5.80;5.50;;;;;;;9.15;100.00;97239.84;4954697;28;20193;-75
2023/01/06 07:48:55;;;;;;;5.73;5.43;;;;;;;9.23;100.00;97248.50;4954661;29;20213;-76
2023/01/06 07:51:21;;;;;;;7.10;6.70;;;;;;;9.28;100.00;97252.09;4954602;29;20575;-76
2023/01/06 07:53:46;;;;;;;6.73;6.43;;;;;;;9.29;100.00;97258.94;4954829;29;20182;-76
2023/01/06 07:56:11;;;;;;;9.63;9.13;;;;;;;9.32;100.00;97255.09;4951083;28;20224;-77
2023/01/06 07:58:37;;;;;;;7.37;7.07;;;;;;;9.34;100.00;97269.59;4974049;28;20219;-76
2023/01/06 08:01:07;;;;;;;5.40;5.10;;;;;;;9.36;100.00;97270.16;4973588;28;20313;-77
2023/01/06 08:03:32;;;;;;;4.53;4.33;;;;;;;9.33;100.00;97267.16;4973617;28;20185;-76
2023/01/06 08:05:58;;;;;;;4.40;4.20;;;;;;;9.51;100.00;97269.91;4973640;28;20596;-77
2023/01/06 08:08:23;;;;;;;4.43;4.23;;;;;;;9.43;100.00;97273.56;4940622;28;20199;-77
2023/01/06 08:10:48;;;;;;;4.40;4.17;;;;;;;9.32;100.00;97274.22;4973989;28;20799;-78
2023/01/06 08:13:14;;;;;;;3.60;3.40;;;;;;;9.38;100.00;97277.81;4973818;28;20192;-77
2023/01/06 08:15:39;;;;;;;4.97;4.70;;;;;;;9.29;100.00;97279.88;4973974;28;20211;-77
2023/01/06 08:18:05;;;;;;;6.20;5.67;;;;;;;9.36;100.00;97275.41;4973743;28;20268;-77
2023/01/06 08:20:32;;;;;;;6.50;6.10;;;;;;;9.33;100.00;97281.06;4974075;28;20216;-77
2023/01/06 08:22:58;;;;;;;6.70;6.40;;;;;;;9.27;100.00;97279.25;4968091;28;20265;-76
2023/01/06 08:25:24;;;;;;;35.50;33.63;;;;;;;9.21;100.00;97284.50;4971671;28;20647;-77
2023/01/06 08:27:49;;;;;;;8.57;8.00;;;;;;;9.10;100.00;97281.50;4973609;28;20290;-77
2023/01/06 08:30:20;;;;;;;13.00;12.07;;;;;;;9.18;100.00;97289.16;4973716;28;20252;-77
2023/01/06 08:32:46;;;;;;;18.07;17.13;;;;;;;9.14;100.00;97290.53;4956804;28;20727;-76
2023/01/06 08:35:12;;;;;;;9.67;9.17;;;;;;;8.92;100.00;97293.59;4972717;28;20271;-76
2023/01/06 08:37:37;;;;;;;8.73;8.13;;;;;;;8.80;100.00;97295.25;4973605;28;20196;-76
2023/01/06 08:40:03;;;;;;;7.10;6.70;;;;;;;8.82;100.00;97295.84;4973718;28;20184;-77
2023/01/06 08:42:28;;;;;;;6.57;6.07;;;;;;;8.76;100.00;97300.88;4973587;28;20193;-77
2023/01/06 08:44:54;;;;;;;5.40;5.10;;;;;;;8.75;100.00;97304.47;4973663;28;20543;-76
2023/01/06 08:47:19;;;;;;;4.97;4.63;;;;;;;8.87;100.00;97301.25;4940003;28;20188;-75
2023/01/06 08:49:44;;;;;;;3.97;3.77;;;;;;;9.00;100.00;97302.06;4973702;28;20177;-76
2023/01/06 08:52:10;;;;;;;4.50;4.30;;;;;;;8.99;100.00;97289.19;4973276;28;20192;-75
2023/01/06 08:54:35;;;;;;;4.57;4.37;;;;;;;8.97;100.00;97291.97;4972785;28;20192;-75
2023/01/06 08:57:00;;;;;;;5.77;5.47;;;;;;;9.02;100.00;97301.84;4973314;28;20263;-76
2023/01/06 08:59:27;;;;;;;6.03;5.53;;;;;;;9.03;100.00;97304.25;4977325;28;20288;-75
2023/01/06 09:01:52;;;;;;;5.60;5.20;;;;;;;9.14;100.00;97302.81;4977011;28;20227;-76
2023/01/06 09:04:18;;;;;;;5.70;5.20;;;;;;;9.08;100.00;97301.81;4976136;28;20295;-75
2023/01/06 09:06:43;;;;;;;5.13;4.83;;;;;;;9.17;100.00;97307.66;4977138;28;20188;-75
2023/01/06 09:09:13;;;;;;;4.47;4.27;;;;;;;9.14;100.00;97308.03;4976792;28;20184;-77
2023/01/06 09:11:42;;;;;;;5.23;4.93;;;;;;;9.21;100.00;97319.31;4960222;28;20208;-76
2023/01/06 09:14:09;;;;;;;4.33;4.03;;;;;;;9.15;100.00;97326.16;4976819;28;20192;-75
2023/01/06 09:16:34;;;;;;;4.70;4.50;;;;;;;9.06;100.00;97326.56;4976898;28;20176;-76
2023/01/06 09:19:00;;;;;;;4.57;4.27;;;;;;;8.89;100.00;97330.63;4976640;28;20661;-76
2023/01/06 09:21:25;;;;;;;4.70;4.40;;;;;;;8.84;100.00;97338.25;4974143;28;20193;-74
2023/01/06 09:23:50;;;;;;;5.73;5.37;;;;;;;8.85;100.00;97338.06;4958276;28;20185;-76
2023/01/06 09:26:17;;;;;;;5.27;4.87;;;;;;;8.87;100.00;97325.59;4953518;28;20189;-77
2023/01/06 09:28:43;;;;;;;4.50;4.30;;;;;;;8.87;100.00;97325.59;4976245;28;20215;-75
2023/01/06 09:31:09;;;;;;;5.27;5.07;;;;;;;8.95;100.00;97320.16;4976182;28;20202;-76
2023/01/06 09:33:35;;;;;;;3.80;3.60;;;;;;;8.93;100.00;97318.75;4975952;28;20590;-75
2023/01/06 09:36:00;;;;;;;4.03;3.93;;;;;;;9.02;100.00;97336.66;4958119;28;20715;-77
2023/01/06 09:38:27;;;;;;;5.17;4.97;;;;;;;8.99;100.00;97341.47;4976253;28;20189;-76
2023/01/06 09:41:27;;;;;;;4.60;4.40;;;;;;;9.21;100.00;97340.22;4976060;28;20193;-76
2023/01/06 09:44:03;;;;;;;4.77;4.57;;;;;;;9.23;100.00;97340.84;4976468;28;20184;-75
2023/01/06 09:46:33;;;;;;;4.20;3.90;;;;;;;9.41;100.00;97338.41;4976110;28;20172;-75
2023/01/06 09:49:12;;;;;;;6.03;5.73;;;;;;;9.38;100.00;97338.78;4974283;28;20274;-75
2023/01/06 09:51:38;;;;;;;6.40;6.10;;;;;;;9.45;100.00;97338.78;4970706;28;20204;-76
2023/01/06 09:54:29;;;;;;;3.97;3.77;;;;;;;9.59;100.00;97349.00;4976171;28;20252;-76
2023/01/06 09:57:05;;;;;;;4.43;4.30;;;;;;;9.66;100.00;97346.34;4975106;28;20633;-75
2023/01/06 09:59:46;;;;;;;6.50;6.10;;;;;;;9.76;100.00;97343.28;4975303;28;20180;-76
2023/01/06 10:02:21;;;;;;;7.83;7.43;;;;;;;9.99;100.00;97341.78;4975861;28;20173;-76
2023/01/06 10:04:46;;;;;;;5.60;5.23;;;;;;;10.21;100.00;97346.75;4973301;28;20223;-74
2023/01/06 10:07:31;;;;;;;3.03;2.83;;;;;;;10.14;100.00;97346.75;4975603;28;20211;-74
2023/01/06 10:10:33;;;;;;;3.67;3.57;;;;;;;10.09;100.00;97337.91;4975257;28;20209;-75
2023/01/06 10:13:22;;;;;;;4.93;4.73;;;;;;;10.28;100.00;97337.03;4958150;28;20286;-74
2023/01/06 10:16:00;;;;;;;4.50;4.30;;;;;;;9.99;100.00;97322.66;4975472;28;20211;-75
2023/01/06 10:19:20;;;;;;;4.20;4.00;;;;;;;10.28;100.00;97334.41;4975474;28;20196;-75
2023/01/06 10:22:11;;;;;;;6.23;5.83;;;;;;;10.24;100.00;97317.53;4913086;29;20198;-75
2023/01/06 10:24:49;;;;;;;4.20;4.00;;;;;;;10.23;100.00;97313.28;4968376;28;20209;-75
2023/01/06 10:27:24;;;;;;;5.27;4.87;;;;;;;10.31;100.00;97319.06;4974677;28;20663;-74
2023/01/06 10:29:53;;;;;;;6.00;5.70;;;;;;;10.27;100.00;97312.66;4966567;28;20197;-75
2023/01/06 10:32:20;;;;;;;5.30;5.00;;;;;;;10.33;100.00;97311.00;4974964;28;20189;-76
2023/01/06 10:34:48;;;;;;;4.50;4.30;;;;;;;10.42;100.00;97302.66;4965050;28;20185;-75
2023/01/06 10:37:19;;;;;;;4.60;4.40;;;;;;;10.38;100.00;97293.63;4957241;28;20196;-72
2023/01/06 10:39:49;;;;;;;4.10;3.87;;;;;;;10.64;100.00;97289.22;4975278;28;20192;-73
2023/01/06 10:45:11;;;;;;;3.63;3.43;;;;;;;10.67;100.00;97280.91;4975062;28;20172;-72
2023/01/06 10:47:38;;;;;;;4.47;4.20;;;;;;;10.89;100.00;97266.41;4974412;28;20200;-73
2023/01/06 10:50:04;;;;;;;4.60;4.30;;;;;;;11.15;100.00;97271.38;4974642;28;20243;-73
2023/01/06 10:52:30;;;;;;;3.00;2.90;;;;;;;10.99;100.00;97271.94;4975572;28;20621;-74
2023/01/06 10:55:01;;;;;;;6.07;5.77;;;;;;;10.82;100.00;97261.22;4974674;28;20730;-73
2023/01/06 10:57:31;;;;;;;3.60;3.40;;;;;;;10.98;100.00;97261.69;4974382;28;20177;-73
2023/01/06 11:00:09;;;;;;;3.20;3.07;;;;;;;10.83;100.00;97254.16;4974329;28;20678;-72
2023/01/06 11:02:34;;;;;;;5.90;5.63;;;;;;;10.83;100.00;97257.56;4958930;28;20231;-75
2023/01/06 11:05:01;;;;;;;3.53;3.43;;;;;;;10.89;100.00;97263.78;4974169;28;20184;-73
2023/01/06 11:07:28;;;;;;;7.53;7.07;;;;;;;10.88;100.00;97258.72;4953150;28;20189;-76
2023/01/06 11:09:54;;;;;;;7.03;6.63;;;;;;;10.81;100.00;97267.47;4971204;28;20188;-75
2023/01/06 11:12:21;;;;;;;6.77;6.47;;;;;;;11.08;100.00;97254.09;4974614;28;20187;-74
2023/01/06 11:14:58;;;;;;;6.50;6.00;;;;;;;11.04;100.00;97251.09;4974155;28;20718;-74
2023/01/06 11:17:25;;;;;;;5.67;5.47;;;;;;;10.98;100.00;97267.72;4974097;28;20173;-75
2023/01/06 11:20:27;;;;;;;5.20;4.97;;;;;;;11.01;100.00;97269.09;4974035;28;20546;-74
2023/01/06 11:22:52;;;;;;;4.97;4.70;;;;;;;10.85;100.00;97265.22;4971368;28;20551;-75
2023/01/06 11:25:21;;;;;;;5.80;5.60;;;;;;;10.82;100.00;97270.88;4978729;28;20185;-75
2023/01/06 11:28:08;;;;;;;6.43;6.00;;;;;;;10.86;100.00;97264.22;4951749;29;20221;-75
2023/01/06 11:30:43;;;;;;;5.93;5.53;;;;;;;10.71;100.00;97258.47;4954470;28;20278;-76
2023/01/06 11:33:17;;;;;;;5.67;5.37;;;;;;;10.74;100.00;97258.06;4958399;28;20191;-75
2023/01/06 11:35:43;;;;;;;7.27;6.97;;;;;;;10.70;100.00;97257.69;4956057;28;20193;-74
2023/01/06 11:38:13;;;;;;;8.20;7.70;;;;;;;10.82;100.00;97257.78;4956259;28;20212;-74
2023/01/06 11:40:41;;;;;;;15.87;15.10;;;;;;;10.73;100.00;97261.72;4973984;28;20176;-74
2023/01/06 11:43:12;;;;;;;5.83;5.60;;;;;;;10.59;100.00;97252.38;4974014;28;20208;-75
2023/01/06 11:45:44;;;;;;;7.50;7.20;;;;;;;10.65;100.00;97257.53;4957124;28;20188;-76
2023/01/06 11:48:25;;;;;;;4.70;4.50;;;;;;;10.55;100.00;97256.41;4956690;28;20188;-75
2023/01/06 11:50:59;;;;;;;4.67;4.47;;;;;;;10.59;100.00;97247.13;4974124;28;20200;-75